Página principal
METAR-TAF:

METAR-TAF

Aeroportos :

Florø, Noruega

latitude: 61-35N, longitude: 005-02E, altura: 0 m

Observação actual do tempo

O boletim foi feito há 26 minutos, às 12:50 UTC
Vento 4 kt de nordeste, variando entre nor-nordeste e este
Temperatura 10°C
Humidade 53%
Pressão 1007 hPa
Visibilidade 10 km ou mais

METAR: ENFL 021250Z AUTO 05004KT 020V080 9999NDV FEW200/// 10/01 Q1007

Hora: 14:16 (13:16 UTC)

Previsão

O boletim foi feito há 2 horas e 16 minutos, às 11:00 UTC
Previsão válida de 02 às 12 UTC a 02 às 21 UTC
Vento 10 kt de este
Visibilidade 10 km ou mais
sem nuvens abaixo de 1500 metros e sem cumulonimbus
Tornando-se
de 02 às 19 UTC a 02 às 21 UTC
Vento 5 kt com direcção variável

TAF: ENFL 021100Z 0212/0221 09010KT CAVOK BECMG 0219/0221 VRB05KT

Observações e previsões do tempo de mais de 4000 aeroportos (mensagens METAR e TAF).

As estações disponíveis são os pontos amarelos e vermelhos sobre o mapa.

Mova o rato sobre o mapa para ver o nome da estação.

Depois clique no ponto para visualizar as observações e previsões meteorológicas.

Para alterar o mapa : clique nos botões verdes com uma cruz preta para aumentar o zoom; no botão verde com uma pitada de zoom; ou nas setas verdes para mapas adjacentes.


METAR-TAF: